Time;durP1;ratioP1;P1;durP2;ratioP2;P2;SDS_P1;SDS_P2;PMS_P1;PMS_P2;Temp;Humidity;BMP_temperature;BMP_pressure;BME280_temperature;BME280_humidity;BME280_pressure;Samples;Min_cycle;Max_cycle;Signal;HPM_P1;HPM_P2
2022/08/12 00:44:09;;;;;;;0.00;0.00;;;;;;;23.48;45.32;101657.19;7355892;19;20031;-58
2022/08/12 00:46:47;;;;;;;0.00;0.00;;;;;;;23.45;44.48;101658.22;7356761;19;20014;-61
2022/08/12 00:49:13;;;;;;;0.00;0.00;;;;;;;23.41;45.33;101667.34;7355856;19;20433;-62
2022/08/12 00:54:23;;;;;;;0.05;0.05;;;;;;;23.34;45.31;101660.69;7356039;19;20387;-62
2022/08/12 00:56:49;;;;;;;0.00;0.00;;;;;;;23.28;45.17;101656.59;7356783;19;20553;-62
2022/08/12 00:59:15;;;;;;;0.00;0.00;;;;;;;23.26;44.92;101655.81;7356716;19;20108;-61
2022/08/12 01:01:45;;;;;;;0.00;0.00;;;;;;;23.23;44.36;101657.81;7353700;19;20127;-62
2022/08/12 01:12:28;;;;;;;0.00;0.00;;;;;;;23.01;46.49;101648.47;7359282;19;20018;-62
2022/08/12 01:14:54;;;;;;;0.00;0.00;;;;;;;22.97;46.59;101646.06;7353949;19;20010;-61
2022/08/12 01:17:21;;;;;;;0.00;0.00;;;;;;;22.92;46.93;101641.00;7359383;19;20014;-62
2022/08/12 01:19:49;;;;;;;;;;;;;;;22.85;42.06;101631.63;7357900;19;20155;-62
2022/08/12 01:22:30;;;;;;;0.00;0.00;;;;;;;22.82;44.82;101633.63;7355208;19;19950;-62
2022/08/12 01:25:02;;;;;;;0.00;0.00;;;;;;;22.76;46.44;101632.19;7358000;19;20022;-62
2022/08/12 01:27:31;;;;;;;0.00;0.00;;;;;;;22.70;46.82;101627.19;7356931;19;20011;-62
2022/08/12 01:29:58;;;;;;;0.00;0.00;;;;;;;22.65;46.90;101629.28;7356373;19;20017;-62
2022/08/12 01:32:27;;;;;;;0.00;0.00;;;;;;;22.62;46.79;101626.81;7358014;19;20011;-61
2022/08/12 01:35:07;;;;;;;0.00;0.00;;;;;;;22.58;45.21;101627.94;7358213;19;20514;-62
2022/08/12 01:37:48;;;;;;;0.00;0.00;;;;;;;22.53;45.68;101637.03;7357207;19;20027;-61
2022/08/12 01:40:17;;;;;;;0.00;0.00;;;;;;;22.49;47.24;101632.81;7355948;19;20019;-62
2022/08/12 01:42:46;;;;;;;0.00;0.00;;;;;;;22.46;46.33;101626.84;7356686;19;20022;-62
2022/08/12 01:45:12;;;;;;;0.00;0.00;;;;;;;22.37;47.43;101614.06;7356692;19;20800;-62
2022/08/12 01:47:59;;;;;;;0.08;0.08;;;;;;;22.39;44.84;101628.13;7358535;19;20447;-62
2022/08/12 01:50:39;;;;;;;0.00;0.00;;;;;;;22.32;45.80;101622.31;7353448;19;20010;-62
2022/08/12 01:53:10;;;;;;;0.10;0.10;;;;;;;22.32;47.29;101632.94;7357442;19;20011;-62
2022/08/12 01:55:39;;;;;;;0.00;0.00;;;;;;;22.29;47.05;101633.13;7355298;19;20100;-62
2022/08/12 01:58:10;;;;;;;0.00;0.00;;;;;;;22.26;46.78;101628.00;7345713;19;20031;-62
2022/08/12 02:00:47;;;;;;;0.10;0.10;;;;;;;22.15;47.56;101611.75;7352207;19;20017;-61
2022/08/12 02:12:24;;;;;;;0.00;0.00;;;;;;;22.06;47.94;101633.53;7359013;19;20050;-62
2022/08/12 02:15:01;;;;;;;0.00;0.00;;;;;;;22.02;46.74;101636.34;7358501;19;20749;-61
2022/08/12 02:17:27;;;;;;;0.00;0.00;;;;;;;21.97;48.04;101635.75;7364562;19;20006;-62
2022/08/12 02:20:11;;;;;;;0.00;0.00;;;;;;;21.95;45.48;101640.31;7361567;19;20085;-62
2022/08/12 02:22:40;;;;;;;0.00;0.00;;;;;;;21.92;48.02;101639.63;7363449;19;20006;-62
2022/08/12 02:25:24;;;;;;;0.00;0.00;;;;;;;21.87;47.72;101636.34;7361597;19;20358;-62
2022/08/12 02:27:51;;;;;;;0.00;0.00;;;;;;;21.83;48.14;101635.66;7359469;19;20015;-62
2022/08/12 02:30:18;;;;;;;;;;;;;;;21.79;44.30;101634.09;7364595;19;20014;-62
2022/08/12 02:32:45;;;;;;;0.00;0.00;;;;;;;21.74;47.78;101636.16;7365041;19;19918;-62
2022/08/12 02:35:15;;;;;;;0.00;0.00;;;;;;;21.71;47.15;101633.69;7361548;19;20016;-62
2022/08/12 02:37:42;;;;;;;0.00;0.00;;;;;;;21.67;46.73;101634.78;7363826;19;21007;-61
2022/08/12 02:40:10;;;;;;;0.03;0.03;;;;;;;21.61;47.21;101632.47;7363332;19;20015;-61
2022/08/12 02:42:41;;;;;;;0.00;0.00;;;;;;;21.59;46.73;101631.66;7360257;19;20046;-62
2022/08/12 02:45:07;;;;;;;0.03;0.03;;;;;;;21.54;47.24;101625.75;7362724;19;20063;-61
2022/08/12 02:47:38;;;;;;;0.00;0.00;;;;;;;21.47;47.47;101618.09;7362502;19;20045;-62
2022/08/12 02:50:05;;;;;;;0.00;0.00;;;;;;;21.39;47.21;101609.72;7361284;19;20021;-62
2022/08/12 02:52:32;;;;;;;0.10;0.10;;;;;;;21.34;47.51;101606.44;7362826;19;20023;-61
2022/08/12 02:55:07;;;;;;;0.00;0.00;;;;;;;21.37;46.50;101613.38;7361186;19;20017;-62
2022/08/12 02:57:33;;;;;;;0.08;0.08;;;;;;;21.27;46.97;101610.31;7359781;19;20010;-62
2022/08/12 03:00:04;;;;;;;0.00;0.00;;;;;;;21.27;47.87;101610.31;7361927;19;20801;-61
2022/08/12 03:02:32;;;;;;;0.00;0.00;;;;;;;21.20;47.71;101603.63;7363851;19;20066;-62
2022/08/12 03:04:57;;;;;;;;;;;;;;;21.17;44.25;101603.75;7352466;19;20560;-62
2022/08/12 03:07:23;;;;;;;0.00;0.00;;;;;;;21.13;47.62;101610.16;7363708;19;19926;-61
2022/08/12 03:10:09;;;;;;;0.00;0.00;;;;;;;21.09;45.89;101606.00;7362635;19;20742;-62
2022/08/12 03:12:38;;;;;;;0.00;0.00;;;;;;;21.04;48.09;101602.72;7262130;19;2004270;-62
2022/08/12 03:15:08;;;;;;;0.00;0.00;;;;;;;20.99;48.19;101601.16;7360550;19;20007;-62
2022/08/12 03:17:43;;;;;;;0.00;0.00;;;;;;;20.94;46.95;101597.88;7360260;19;20584;-62
2022/08/12 03:20:10;;;;;;;0.00;0.00;;;;;;;20.89;48.87;101594.59;7352225;19;20513;-61
2022/08/12 03:22:42;;;;;;;0.00;0.00;;;;;;;20.86;47.78;101597.41;7361378;19;20006;-61
2022/08/12 03:25:23;;;;;;;0.00;0.00;;;;;;;20.83;47.58;101597.53;7359038;19;20133;-62
2022/08/12 03:27:54;;;;;;;0.00;0.00;;;;;;;20.78;48.61;101596.91;7364592;19;20403;-62
2022/08/12 03:30:22;;;;;;;0.00;0.00;;;;;;;20.75;48.49;101589.13;7362065;19;20074;-62
2022/08/12 03:32:50;;;;;;;0.00;0.00;;;;;;;20.71;48.97;101595.53;7363844;19;20010;-62
2022/08/12 03:35:26;;;;;;;0.10;0.10;;;;;;;20.69;48.46;101586.78;7362686;19;20013;-62
2022/08/12 03:38:14;;;;;;;0.00;0.00;;;;;;;20.65;47.91;101585.22;7363378;19;20114;-62
2022/08/12 04:00:55;;;;;;;0.00;0.00;;;;;;;20.33;51.16;101568.25;7362830;19;20014;-62
2022/08/12 04:06:07;;;;;;;0.00;0.00;;;;;;;20.23;50.35;101562.53;7363549;19;20018;-62
2022/08/12 04:08:33;;;;;;;0.00;0.00;;;;;;;20.20;50.52;101562.66;7361760;19;20675;-62
2022/08/12 04:13:45;;;;;;;0.00;0.00;;;;;;;20.16;49.97;101555.78;7359293;19;20020;-62
2022/08/12 04:16:12;;;;;;;0.00;0.00;;;;;;;20.17;50.53;101569.00;7363053;19;20022;-62
2022/08/12 04:18:39;;;;;;;0.00;0.00;;;;;;;20.16;49.96;101569.91;7362809;19;20042;-62
2022/08/12 04:21:08;;;;;;;0.00;0.00;;;;;;;20.13;49.51;101566.56;7363119;19;20470;-61
2022/08/12 04:23:34;;;;;;;0.10;0.10;;;;;;;20.10;49.66;101566.72;7360762;19;20017;-62
2022/08/12 04:25:59;;;;;;;0.00;0.00;;;;;;;20.08;49.18;101563.28;7361997;19;20007;-62
2022/08/12 04:28:27;;;;;;;0.00;0.00;;;;;;;20.05;49.62;101560.78;7360188;19;20026;-62
2022/08/12 04:30:52;;;;;;;0.00;0.00;;;;;;;20.01;49.94;101561.84;7363349;19;20006;-62
2022/08/12 04:33:18;;;;;;;0.03;0.03;;;;;;;19.98;49.67;101567.31;7360917;19;20574;-61
2022/08/12 04:35:45;;;;;;;0.00;0.00;;;;;;;19.95;49.67;101566.50;7360902;19;20476;-62
2022/08/12 04:38:11;;;;;;;0.00;0.00;;;;;;;19.90;49.61;101563.22;7362203;19;20466;-62
2022/08/12 04:40:38;;;;;;;0.00;0.00;;;;;;;19.88;49.51;101559.78;7362455;19;21469;-62
2022/08/12 04:43:03;;;;;;;0.00;0.00;;;;;;;19.85;49.57;101557.28;7359277;19;20533;-62
2022/08/12 04:45:31;;;;;;;0.00;0.00;;;;;;;19.82;49.70;101556.56;7361102;19;20022;-62
2022/08/12 04:47:58;;;;;;;0.00;0.00;;;;;;;19.77;49.53;101554.16;7359395;19;20086;-62
2022/08/12 04:50:24;;;;;;;0.00;0.00;;;;;;;19.75;49.88;101556.00;7362125;19;20852;-62
2022/08/12 04:52:50;;;;;;;0.00;0.00;;;;;;;19.68;49.48;101549.28;7361205;19;20844;-62
2022/08/12 04:55:16;;;;;;;0.00;0.00;;;;;;;19.68;49.57;101557.22;7359044;19;20026;-62
2022/08/12 04:57:42;;;;;;;0.00;0.00;;;;;;;19.65;50.03;101557.38;7360844;19;20014;-62
2022/08/12 05:00:12;;;;;;;0.00;0.00;;;;;;;19.64;49.49;101547.69;7361634;19;20709;-62
2022/08/12 05:02:38;;;;;;;0.00;0.00;;;;;;;19.54;50.10;101546.38;7360527;19;20010;-62
2022/08/12 05:05:07;;;;;;;0.00;0.00;;;;;;;19.56;50.28;101555.09;7360954;19;20041;-62
2022/08/12 05:07:33;;;;;;;0.00;0.00;;;;;;;19.47;49.66;101552.91;7358700;19;20034;-62
2022/08/12 05:09:58;;;;;;;0.00;0.00;;;;;;;19.40;49.67;101544.38;7362565;19;20526;-62
2022/08/12 05:12:27;;;;;;;0.00;0.00;;;;;;;19.34;49.77;101534.06;7361394;19;20007;-61
2022/08/12 05:14:52;;;;;;;0.00;0.00;;;;;;;19.44;49.67;101557.41;7361410;19;20010;-62
2022/08/12 05:17:17;;;;;;;0.00;0.00;;;;;;;19.40;49.43;101555.81;7360096;19;20041;-62
2022/08/12 05:19:43;;;;;;;0.00;0.00;;;;;;;19.40;49.94;101561.13;7359900;19;20006;-61
2022/08/12 05:22:08;;;;;;;0.00;0.00;;;;;;;19.37;50.55;101555.97;7358032;19;20470;-62
2022/08/12 05:24:34;;;;;;;0.00;0.00;;;;;;;19.35;50.05;101556.97;7360625;19;20093;-61
2022/08/12 05:26:59;;;;;;;0.00;0.00;;;;;;;19.32;50.52;101557.97;7360731;19;20360;-62
2022/08/12 05:29:28;;;;;;;0.00;0.00;;;;;;;19.28;50.68;101556.38;7359668;19;20014;-62
2022/08/12 05:31:55;;;;;;;0.00;0.00;;;;;;;19.30;50.76;101558.97;7360140;19;20007;-61
2022/08/12 05:34:20;;;;;;;0.00;0.00;;;;;;;19.26;50.78;101563.56;7358885;19;20077;-61
2022/08/12 05:36:46;;;;;;;0.00;0.00;;;;;;;19.24;50.80;101554.81;7360512;19;20010;-62
2022/08/12 05:39:11;;;;;;;0.08;0.08;;;;;;;19.23;51.33;101557.53;7358918;19;20029;-62
2022/08/12 05:41:38;;;;;;;0.00;0.00;;;;;;;19.22;51.54;101561.97;7360662;19;20009;-62
2022/08/12 05:44:09;;;;;;;0.00;0.00;;;;;;;19.22;50.47;101556.66;7359508;19;20026;-62
2022/08/12 05:46:36;;;;;;;0.00;0.00;;;;;;;19.21;51.99;101557.59;7360075;19;20014;-62
2022/08/12 05:49:03;;;;;;;0.00;0.00;;;;;;;19.21;51.99;101554.97;7362782;19;20030;-62
2022/08/12 05:51:33;;;;;;;0.03;0.03;;;;;;;19.22;51.50;101561.97;7367878;19;20111;-62
2022/08/12 05:53:59;;;;;;;0.00;0.00;;;;;;;19.17;52.06;101548.06;7365700;19;20007;-62
2022/08/12 05:56:29;;;;;;;0.00;0.00;;;;;;;19.22;51.94;101561.97;7366892;19;20042;-62
2022/08/12 05:58:56;;;;;;;0.00;0.00;;;;;;;19.23;52.19;101553.09;7354277;19;20014;-62
2022/08/12 06:01:24;;;;;;;0.00;0.00;;;;;;;19.25;50.51;101555.66;7366260;19;20097;-61
2022/08/12 06:03:51;;;;;;;0.00;0.00;;;;;;;19.24;50.30;101554.81;7363628;19;20017;-62
2022/08/12 06:06:17;;;;;;;0.00;0.00;;;;;;;19.25;52.36;101561.81;7363586;19;20214;-62
2022/08/12 06:08:47;;;;;;;0.00;0.00;;;;;;;19.26;53.25;101547.66;7364113;19;20056;-62
2022/08/12 06:11:14;;;;;;;0.00;0.00;;;;;;;19.14;53.48;101527.03;7364027;19;20018;-61
2022/08/12 06:13:42;;;;;;;0.00;0.00;;;;;;;19.30;53.02;101554.53;7360545;19;20046;-61
2022/08/12 06:16:10;;;;;;;0.00;0.00;;;;;;;19.32;53.47;101563.28;7364512;19;20014;-62
2022/08/12 06:18:39;;;;;;;0.00;0.00;;;;;;;19.35;53.88;101557.81;7362507;19;20023;-62
2022/08/12 06:21:15;;;;;;;0.00;0.00;;;;;;;19.39;53.96;101559.41;7357669;19;20034;-61
2022/08/12 06:23:41;;;;;;;0.05;0.05;;;;;;;19.42;52.55;101556.63;7363379;19;20078;-62
2022/08/12 06:26:10;;;;;;;0.00;0.00;;;;;;;19.47;53.97;101553.75;7362456;19;20023;-62
2022/08/12 06:28:37;;;;;;;0.03;0.03;;;;;;;19.52;53.48;101553.56;7363163;19;20006;-62
2022/08/12 06:31:02;;;;;;;0.00;0.00;;;;;;;19.49;53.26;101535.16;7362467;19;20006;-62
2022/08/12 06:33:28;;;;;;;0.00;0.00;;;;;;;19.51;52.53;101531.47;7363630;19;20014;-62
2022/08/12 06:35:53;;;;;;;0.00;0.00;;;;;;;19.66;52.01;101551.13;7360746;19;20038;-61
2022/08/12 06:38:21;;;;;;;0.00;0.00;;;;;;;19.72;51.97;101549.97;7362387;19;20022;-62
2022/08/12 06:43:34;;;;;;;0.00;0.00;;;;;;;19.82;52.33;101552.16;7359432;19;20029;-61
2022/08/12 06:46:00;;;;;;;0.03;0.03;;;;;;;19.86;51.64;101553.69;7365521;19;20014;-61
2022/08/12 06:48:27;;;;;;;0.00;0.00;;;;;;;19.93;51.93;101552.47;7361193;19;20010;-62
2022/08/12 06:50:56;;;;;;;0.00;0.00;;;;;;;20.01;50.82;101551.25;7364109;19;20026;-61
2022/08/12 06:53:23;;;;;;;0.10;0.10;;;;;;;20.05;52.87;101552.81;7363207;19;20086;-61
2022/08/12 06:55:50;;;;;;;0.00;0.00;;;;;;;20.10;51.96;101546.34;7363401;19;20018;-62
2022/08/12 06:58:19;;;;;;;0.00;0.00;;;;;;;20.14;51.85;101539.97;7358919;19;20891;-62
2022/08/12 07:00:45;;;;;;;0.00;0.00;;;;;;;20.22;51.02;101542.22;7361685;19;20038;-61
2022/08/12 07:03:16;;;;;;;0.00;0.00;;;;;;;20.28;52.40;101544.59;7361560;19;20063;-62
2022/08/12 07:05:42;;;;;;;0.00;0.00;;;;;;;20.34;51.58;101544.28;7362612;19;20129;-62
2022/08/12 07:08:09;;;;;;;0.00;0.00;;;;;;;20.39;51.96;101547.56;7360628;19;20011;-61
2022/08/12 07:10:40;;;;;;;0.00;0.00;;;;;;;20.47;51.46;101553.34;7362297;19;20026;-62
2022/08/12 07:13:07;;;;;;;0.00;0.00;;;;;;;20.52;52.02;101546.97;7359613;19;20014;-62
2022/08/12 07:15:34;;;;;;;0.03;0.03;;;;;;;20.59;51.62;101551.03;7361442;19;20078;-62
2022/08/12 07:18:00;;;;;;;0.00;0.00;;;;;;;20.64;52.92;101551.66;7361363;19;20010;-62
2022/08/12 07:20:30;;;;;;;0.10;0.10;;;;;;;20.70;51.65;101556.66;7356575;19;20034;-62
2022/08/12 07:22:59;;;;;;;0.00;0.00;;;;;;;20.77;51.00;101547.44;7350385;19;20449;-62
2022/08/12 07:25:30;;;;;;;0.00;0.00;;;;;;;20.82;52.38;101550.69;7357870;19;20018;-62
2022/08/12 07:28:02;;;;;;;0.10;0.10;;;;;;;20.86;52.30;101554.91;7358288;19;20036;-62
2022/08/12 07:30:29;;;;;;;0.00;0.00;;;;;;;20.89;52.01;101552.13;7361200;19;20011;-61
2022/08/12 07:32:55;;;;;;;0.00;0.00;;;;;;;20.91;52.72;101541.41;7359285;19;20110;-62
2022/08/12 07:35:21;;;;;;;0.08;0.08;;;;;;;21.06;53.01;101559.19;7350290;19;20094;-62
2022/08/12 07:37:49;;;;;;;0.00;0.00;;;;;;;21.11;53.25;101559.78;7356667;19;20625;-62
2022/08/12 07:40:14;;;;;;;;;;;;;;;21.24;49.08;101565.31;7359743;19;20062;-62
2022/08/12 07:42:40;;;;;;;0.00;0.00;;;;;;;21.26;54.32;101558.13;7357456;19;20588;-62
2022/08/12 07:45:08;;;;;;;0.10;0.10;;;;;;;21.22;52.85;101553.91;7360192;19;20014;-62
2022/08/12 07:47:34;;;;;;;0.00;0.00;;;;;;;21.27;54.11;101541.25;7345211;19;20370;-62
2022/08/12 07:50:00;;;;;;;0.10;0.10;;;;;;;21.41;53.84;101565.28;7345473;19;20006;-62
2022/08/12 07:52:27;;;;;;;0.00;0.00;;;;;;;21.47;53.08;101570.28;7355308;19;20019;-63
2022/08/12 07:54:53;;;;;;;0.07;0.07;;;;;;;21.50;53.18;101559.50;7349853;19;20047;-61
2022/08/12 07:57:18;;;;;;;0.00;0.00;;;;;;;21.57;53.10;101564.47;7353393;19;20003;-62
2022/08/12 07:59:44;;;;;;;0.00;0.00;;;;;;;21.66;53.55;101559.50;7361151;19;20016;-63
2022/08/12 08:02:10;;;;;;;0.00;0.00;;;;;;;21.71;52.90;101556.59;7355186;19;20017;-61
2022/08/12 08:07:21;;;;;;;0.00;0.00;;;;;;;21.80;52.96;101550.75;7358531;19;20024;-62
2022/08/12 08:09:47;;;;;;;0.00;0.00;;;;;;;21.92;52.55;101554.53;7360465;19;20014;-61
2022/08/12 08:14:57;;;;;;;0.00;0.00;;;;;;;22.04;53.14;101559.13;7361710;19;20760;-62
2022/08/12 08:17:24;;;;;;;0.10;0.10;;;;;;;21.99;51.88;101539.91;7358245;19;21126;-62
2022/08/12 08:19:51;;;;;;;;;;;;;;;22.23;49.05;101553.66;7362612;19;20011;-62
2022/08/12 08:22:21;;;;;;;0.00;0.00;;;;;;;22.26;50.95;101556.16;7356326;19;20011;-62
2022/08/12 08:24:50;;;;;;;0.00;0.00;;;;;;;22.29;51.43;101561.28;7363101;19;20077;-61
2022/08/12 08:27:15;;;;;;;0.00;0.00;;;;;;;22.35;50.93;101557.38;7354594;19;20824;-61
2022/08/12 08:29:43;;;;;;;0.00;0.00;;;;;;;22.39;50.75;101554.47;7361382;19;20007;-62
2022/08/12 08:32:09;;;;;;;0.10;0.10;;;;;;;22.44;50.68;101552.38;7358305;19;20478;-62
2022/08/12 08:34:35;;;;;;;0.00;0.00;;;;;;;22.40;50.67;101542.88;7354929;19;20015;-62
2022/08/12 08:37:00;;;;;;;0.00;0.00;;;;;;;22.57;50.93;101563.19;7361049;19;20014;-62
2022/08/12 08:39:27;;;;;;;0.03;0.03;;;;;;;22.61;50.12;101556.72;7361555;19;20420;-62
2022/08/12 08:44:38;;;;;;;0.10;0.10;;;;;;;22.76;50.14;101552.31;7361068;19;20024;-62
2022/08/12 08:47:05;;;;;;;0.05;0.05;;;;;;;22.72;50.20;101534.78;7359509;19;20014;-62
2022/08/12 08:49:30;;;;;;;0.00;0.00;;;;;;;22.86;49.98;101548.13;7356079;19;20042;-62
2022/08/12 08:51:56;;;;;;;0.10;0.10;;;;;;;22.97;49.56;101555.50;7359301;19;20014;-62
2022/08/12 08:54:23;;;;;;;0.00;0.00;;;;;;;23.00;49.67;101550.81;7360268;19;20025;-62
2022/08/12 08:56:49;;;;;;;0.08;0.08;;;;;;;23.11;49.28;101551.97;7361791;19;20017;-62
2022/08/12 08:59:21;;;;;;;0.00;0.00;;;;;;;23.20;48.99;101556.72;7362022;19;20019;-62
2022/08/12 09:01:47;;;;;;;0.05;0.05;;;;;;;23.26;48.51;101556.34;7362492;19;20014;-62
2022/08/12 09:04:13;;;;;;;0.00;0.00;;;;;;;23.34;48.51;101554.06;7359620;19;20010;-63
2022/08/12 09:06:43;;;;;;;0.00;0.00;;;;;;;23.50;48.48;101554.81;7348844;19;20010;-62
2022/08/12 09:09:09;;;;;;;0.00;0.00;;;;;;;23.70;47.63;101542.91;7357083;19;20013;-62
2022/08/12 09:14:19;;;;;;;0.10;0.10;;;;;;;24.27;47.12;101540.03;7359134;19;20025;-62
2022/08/12 09:16:45;;;;;;;0.00;0.00;;;;;;;24.48;46.32;101526.22;7361421;19;20762;-63
2022/08/12 09:19:13;;;;;;;0.03;0.03;;;;;;;24.89;45.86;101552.78;7360480;19;20407;-62
2022/08/12 09:21:39;;;;;;;0.10;0.10;;;;;;;25.22;45.42;101544.22;7359659;19;20010;-63
2022/08/12 09:24:06;;;;;;;0.00;0.00;;;;;;;25.56;44.39;101550.69;7359236;19;20110;-63
2022/08/12 09:26:33;;;;;;;0.00;0.00;;;;;;;25.92;44.21;101540.97;7359297;19;20440;-63
2022/08/12 09:28:58;;;;;;;0.10;0.10;;;;;;;26.16;43.28;101530.25;7361147;19;20015;-63
2022/08/12 09:31:24;;;;;;;0.10;0.10;;;;;;;26.60;42.58;101540.28;7361402;19;20020;-63
2022/08/12 09:33:50;;;;;;;0.00;0.00;;;;;;;26.94;42.27;101532.31;7359473;19;20010;-63
2022/08/12 09:36:17;;;;;;;0.10;0.10;;;;;;;27.28;41.89;101529.69;7361037;19;20646;-63
2022/08/12 09:38:43;;;;;;;0.08;0.08;;;;;;;27.63;41.43;101525.00;7361992;19;20150;-62
2022/08/12 09:41:09;;;;;;;0.10;0.10;;;;;;;27.98;40.93;101529.31;7361299;19;20508;-63
2022/08/12 09:46:18;;;;;;;0.05;0.05;;;;;;;28.72;39.55;101525.78;7361105;19;20021;-63
2022/08/12 09:48:44;;;;;;;0.10;0.10;;;;;;;29.05;37.79;101522.91;7359720;19;20824;-63
2022/08/12 09:51:11;;;;;;;0.00;0.00;;;;;;;29.43;38.19;101529.38;7360951;19;20026;-63
2022/08/12 09:53:38;;;;;;;0.10;0.10;;;;;;;29.74;36.25;101522.13;7359243;19;20026;-63
2022/08/12 09:56:04;;;;;;;0.00;0.00;;;;;;;30.07;36.36;101531.66;7361196;19;20822;-63
2022/08/12 09:58:29;;;;;;;0.00;0.00;;;;;;;30.41;36.45;101523.16;7359416;19;20010;-63
2022/08/12 10:01:00;;;;;;;0.00;0.00;;;;;;;30.75;34.53;101524.38;7360837;19;20025;-63
2022/08/12 10:03:27;;;;;;;0.10;0.10;;;;;;;31.08;35.75;101527.56;7358537;19;20103;-63
2022/08/12 10:05:53;;;;;;;0.03;0.03;;;;;;;31.42;33.75;101526.97;7359158;19;20033;-63
2022/08/12 10:08:20;;;;;;;0.00;0.00;;;;;;;31.78;34.16;101517.97;7359258;19;20010;-63
2022/08/12 10:13:42;;;;;;;0.10;0.10;;;;;;;32.62;32.06;101522.09;7358416;19;20261;-63
2022/08/12 10:16:42;;;;;;;0.00;0.00;;;;;;;32.96;30.48;101514.03;7360355;19;20015;-63
2022/08/12 10:19:08;;;;;;;0.10;0.10;;;;;;;33.37;31.34;101524.22;7254911;19;2004258;-63
2022/08/12 10:21:36;;;;;;;0.10;0.10;;;;;;;33.72;30.37;101515.03;7360080;19;20013;-64
2022/08/12 10:24:09;;;;;;;0.00;0.00;;;;;;;34.04;30.49;101515.09;7357646;19;20011;-62
2022/08/12 10:29:44;;;;;;;0.10;0.10;;;;;;;34.54;29.23;101505.09;7361135;19;20022;-63
2022/08/12 10:32:22;;;;;;;0.10;0.10;;;;;;;34.97;29.75;101505.69;7359095;19;20458;-63
2022/08/12 10:34:51;;;;;;;0.00;0.00;;;;;;;35.12;26.80;101503.91;7363903;19;20078;-62
2022/08/12 10:37:17;;;;;;;0.00;0.00;;;;;;;35.35;28.39;101504.84;7366283;19;20637;-63
2022/08/12 10:39:44;;;;;;;0.00;0.00;;;;;;;35.63;25.99;101495.34;7362355;19;20018;-64
2022/08/12 10:44:59;;;;;;;0.10;0.10;;;;;;;36.18;26.50;101494.28;7366096;19;20034;-62
2022/08/12 10:47:27;;;;;;;0.00;0.00;;;;;;;36.41;26.79;101484.22;7365763;19;20050;-64
2022/08/12 10:49:53;;;;;;;0.10;0.10;;;;;;;36.72;24.82;101503.13;7368378;19;20007;-64
2022/08/12 10:52:18;;;;;;;0.00;0.00;;;;;;;37.05;26.06;101497.31;7366860;19;20668;-61
2022/08/12 10:54:45;;;;;;;0.10;0.10;;;;;;;37.33;26.31;101494.75;7365122;19;21334;-62
2022/08/12 10:57:10;;;;;;;0.00;0.00;;;;;;;37.60;24.81;101485.00;7361545;19;20027;-61
2022/08/12 10:59:36;;;;;;;0.10;0.10;;;;;;;37.95;24.48;101482.44;7366092;19;21512;-61
2022/08/12 11:02:02;;;;;;;0.00;0.00;;;;;;;38.29;23.36;101489.91;7361175;19;20007;-61
2022/08/12 11:04:29;;;;;;;0.00;0.00;;;;;;;38.61;23.51;101478.34;7362358;19;20010;-61
2022/08/12 11:06:56;;;;;;;0.10;0.10;;;;;;;38.91;23.86;101475.41;7351964;19;20030;-62
2022/08/12 11:09:23;;;;;;;0.00;0.00;;;;;;;39.21;21.69;101481.44;7353834;19;20018;-62
2022/08/12 11:11:49;;;;;;;0.00;0.00;;;;;;;39.51;22.33;101489.31;7353842;19;20761;-62
2022/08/12 11:14:27;;;;;;;0.10;0.10;;;;;;;39.75;21.88;101469.63;7353069;19;20022;-61
2022/08/12 11:16:57;;;;;;;0.00;0.00;;;;;;;39.88;21.21;101458.66;7346575;19;20007;-61
2022/08/12 11:19:30;;;;;;;0.10;0.10;;;;;;;40.35;21.74;101469.59;7354878;19;20786;-62
2022/08/12 11:21:56;;;;;;;0.10;0.10;;;;;;;40.46;20.53;101478.03;7351579;19;20526;-62
2022/08/12 11:24:23;;;;;;;0.10;0.10;;;;;;;40.72;22.25;101481.78;7353703;19;25268;-62
2022/08/12 11:26:49;;;;;;;0.10;0.10;;;;;;;40.95;21.37;101486.78;7352501;19;20042;-62
2022/08/12 11:29:15;;;;;;;0.00;0.00;;;;;;;41.18;20.73;101469.84;7354689;19;20018;-62
2022/08/12 11:31:41;;;;;;;0.10;0.10;;;;;;;41.50;19.67;101483.59;7352883;19;20017;-61
2022/08/12 11:34:07;;;;;;;0.10;0.10;;;;;;;41.73;18.89;101470.16;7353911;19;20018;-62
2022/08/12 11:36:32;;;;;;;0.07;0.07;;;;;;;41.98;20.09;101473.78;7350537;19;20021;-62
2022/08/12 11:38:58;;;;;;;0.10;0.10;;;;;;;42.19;19.46;101468.97;7352758;19;22013;-62
2022/08/12 11:41:23;;;;;;;0.10;0.10;;;;;;;42.43;20.37;101473.59;7351135;19;20011;-62
2022/08/12 11:43:49;;;;;;;0.10;0.10;;;;;;;42.69;19.94;101466.16;7350262;19;20034;-57
2022/08/12 11:46:17;;;;;;;0.10;0.10;;;;;;;43.04;19.92;101468.28;7348117;19;20017;-58
2022/08/12 11:48:42;;;;;;;0.10;0.10;;;;;;;43.18;19.10;101464.28;7351553;19;20022;-58
2022/08/12 11:51:08;;;;;;;;;;;;;;;43.73;21.22;101467.69;7354000;19;20006;-54
2022/08/12 11:53:33;;;;;;;0.10;0.10;;;;;;;43.71;18.75;101463.53;7351756;19;20445;-56
2022/08/12 11:55:59;;;;;;;;;;;;;;;44.24;21.13;101465.41;7353501;19;20041;-56
2022/08/12 11:58:24;;;;;;;0.10;0.10;;;;;;;44.24;19.04;101457.16;7352632;19;19919;-54
2022/08/12 12:00:49;;;;;;;;;;;;;;;44.81;20.51;101459.22;7352146;19;20010;-55
2022/08/12 12:03:15;;;;;;;;;;;;;;;45.11;20.82;101461.78;7351856;19;19922;-56
2022/08/12 12:05:40;;;;;;;0.10;0.10;;;;;;;45.08;18.77;101456.78;7350360;19;19919;-55
2022/08/12 12:08:06;;;;;;;0.10;0.10;;;;;;;45.28;17.27;101457.16;7352338;19;20027;-53
2022/08/12 12:10:31;;;;;;;0.13;0.13;;;;;;;45.45;17.78;101452.53;7352841;19;20019;-56
2022/08/12 12:12:57;;;;;;;0.10;0.10;;;;;;;45.62;17.11;101457.22;7353410;19;20014;-56
2022/08/12 12:15:22;;;;;;;0.20;0.20;;;;;;;45.76;16.93;101458.59;7353308;19;20020;-55
2022/08/12 12:17:50;;;;;;;0.10;0.10;;;;;;;45.89;16.81;101433.44;7352326;19;20015;-56
2022/08/12 12:20:15;;;;;;;0.10;0.10;;;;;;;46.04;16.90;101424.53;7353033;19;20018;-54
2022/08/12 12:22:41;;;;;;;0.20;0.20;;;;;;;46.30;16.05;101436.81;7351256;19;20019;-56
2022/08/12 12:25:08;;;;;;;0.20;0.20;;;;;;;46.52;16.42;101440.44;7353919;19;20787;-56
2022/08/12 12:27:44;;;;;;;0.20;0.20;;;;;;;46.81;15.68;101434.72;7351532;19;20985;-51
2022/08/12 12:30:09;;;;;;;0.10;0.10;;;;;;;46.79;14.99;101437.75;7351216;19;20016;-56
2022/08/12 12:32:35;;;;;;;0.10;0.10;;;;;;;46.94;14.56;101437.09;7357906;19;20256;-55
2022/08/12 12:35:00;;;;;;;0.20;0.20;;;;;;;47.05;15.40;101433.38;7357409;19;20005;-55
2022/08/12 12:37:26;;;;;;;0.20;0.20;;;;;;;47.19;15.64;101433.75;7354159;19;20010;-54
2022/08/12 12:39:51;;;;;;;0.20;0.20;;;;;;;47.33;14.81;101442.50;7351254;19;20011;-53
2022/08/12 12:42:16;;;;;;;0.22;0.22;;;;;;;47.48;13.43;101442.66;7351839;19;20011;-56
2022/08/12 12:44:42;;;;;;;0.20;0.20;;;;;;;47.62;14.73;101434.75;7350861;19;20010;-59
2022/08/12 12:47:07;;;;;;;0.10;0.10;;;;;;;47.78;14.24;101435.72;7354126;19;20015;-58
2022/08/12 12:49:33;;;;;;;0.20;0.20;;;;;;;47.90;14.06;101436.34;7349812;19;20010;-60
2022/08/12 12:51:58;;;;;;;0.20;0.20;;;;;;;47.99;14.50;101426.47;7353673;19;20798;-56
2022/08/12 12:54:23;;;;;;;0.20;0.20;;;;;;;48.09;14.76;101423.75;7354359;19;20017;-56
2022/08/12 12:56:50;;;;;;;0.20;0.20;;;;;;;48.21;13.89;101433.78;7352880;19;20057;-56
2022/08/12 12:59:17;;;;;;;0.20;0.20;;;;;;;48.28;14.10;101423.31;7348910;19;20912;-56
2022/08/12 13:01:43;;;;;;;0.20;0.20;;;;;;;48.37;14.44;101421.75;7351850;19;20363;-56
2022/08/12 13:04:10;;;;;;;0.20;0.20;;;;;;;48.47;14.06;101427.31;7350304;19;20011;-56
2022/08/12 13:06:35;;;;;;;0.28;0.28;;;;;;;48.56;13.07;101420.13;7353218;19;20014;-56
2022/08/12 13:09:02;;;;;;;0.20;0.20;;;;;;;48.63;13.42;101414.34;7351326;19;20010;-57
2022/08/12 13:11:28;;;;;;;0.28;0.28;;;;;;;48.71;13.14;101424.91;7350993;19;20022;-55
2022/08/12 13:13:55;;;;;;;0.20;0.20;;;;;;;48.68;12.65;101413.53;7349584;19;20041;-55
2022/08/12 13:16:21;;;;;;;0.20;0.20;;;;;;;48.79;12.78;101429.13;7341249;19;20015;-57
2022/08/12 13:18:52;;;;;;;0.22;0.22;;;;;;;48.92;13.51;101420.28;7348219;19;20777;-55
2022/08/12 13:21:18;;;;;;;0.20;0.20;;;;;;;48.87;13.62;101417.50;7345485;19;20070;-55
2022/08/12 13:23:48;;;;;;;0.20;0.20;;;;;;;48.97;13.75;101413.91;7348013;19;20026;-59